sensor_id;sensor_type;location;lat;lon;timestamp;P1;durP1;ratioP1;P2;durP2;ratioP2
71265;SDS011;59030;52.052;8.550;2023-07-28T00:00:58;3.30;;;3.00;;
71265;SDS011;59030;52.052;8.550;2023-07-28T00:03:26;3.13;;;2.83;;
71265;SDS011;59030;52.052;8.550;2023-07-28T00:05:53;2.90;;;2.60;;
71265;SDS011;59030;52.052;8.550;2023-07-28T00:08:20;3.00;;;2.70;;
71265;SDS011;59030;52.052;8.550;2023-07-28T00:10:47;2.43;;;2.23;;
71265;SDS011;59030;52.052;8.550;2023-07-28T00:13:15;2.57;;;2.37;;
71265;SDS011;59030;52.052;8.550;2023-07-28T00:15:42;2.47;;;2.27;;
71265;SDS011;59030;52.052;8.550;2023-07-28T00:18:09;3.17;;;2.67;;
71265;SDS011;59030;52.052;8.550;2023-07-28T00:20:36;2.83;;;2.53;;
71265;SDS011;59030;52.052;8.550;2023-07-28T00:23:04;2.47;;;2.27;;
71265;SDS011;59030;52.052;8.550;2023-07-28T00:25:31;2.37;;;2.17;;
71265;SDS011;59030;52.052;8.550;2023-07-28T00:27:58;2.47;;;2.27;;
71265;SDS011;59030;52.052;8.550;2023-07-28T00:30:25;2.97;;;2.10;;
71265;SDS011;59030;52.052;8.550;2023-07-28T00:32:52;2.10;;;1.90;;
71265;SDS011;59030;52.052;8.550;2023-07-28T00:35:20;2.27;;;2.07;;
71265;SDS011;59030;52.052;8.550;2023-07-28T00:37:47;2.30;;;2.10;;
71265;SDS011;59030;52.052;8.550;2023-07-28T00:40:14;2.30;;;2.10;;
71265;SDS011;59030;52.052;8.550;2023-07-28T00:42:41;2.30;;;2.07;;
71265;SDS011;59030;52.052;8.550;2023-07-28T00:45:09;2.07;;;1.97;;
71265;SDS011;59030;52.052;8.550;2023-07-28T00:47:36;2.70;;;2.20;;
71265;SDS011;59030;52.052;8.550;2023-07-28T00:50:04;1.93;;;1.83;;
71265;SDS011;59030;52.052;8.550;2023-07-28T00:52:31;3.30;;;2.60;;
71265;SDS011;59030;52.052;8.550;2023-07-28T00:54:59;3.67;;;2.50;;
71265;SDS011;59030;52.052;8.550;2023-07-28T00:57:27;2.40;;;2.20;;
71265;SDS011;59030;52.052;8.550;2023-07-28T00:59:54;2.40;;;2.20;;
71265;SDS011;59030;52.052;8.550;2023-07-28T01:02:21;2.23;;;1.93;;
71265;SDS011;59030;52.052;8.550;2023-07-28T01:04:48;2.20;;;2.00;;
71265;SDS011;59030;52.052;8.550;2023-07-28T01:07:17;2.37;;;2.13;;
71265;SDS011;59030;52.052;8.550;2023-07-28T01:09:47;2.53;;;2.00;;
71265;SDS011;59030;52.052;8.550;2023-07-28T01:12:14;2.03;;;1.83;;
71265;SDS011;59030;52.052;8.550;2023-07-28T01:14:42;2.20;;;2.00;;
71265;SDS011;59030;52.052;8.550;2023-07-28T01:17:09;2.07;;;1.77;;
71265;SDS011;59030;52.052;8.550;2023-07-28T01:19:36;3.30;;;2.53;;
71265;SDS011;59030;52.052;8.550;2023-07-28T01:22:09;2.77;;;2.50;;
71265;SDS011;59030;52.052;8.550;2023-07-28T01:24:37;2.63;;;2.20;;
71265;SDS011;59030;52.052;8.550;2023-07-28T01:27:04;2.80;;;2.40;;
71265;SDS011;59030;52.052;8.550;2023-07-28T01:29:33;3.80;;;2.67;;
71265;SDS011;59030;52.052;8.550;2023-07-28T01:32:00;3.43;;;2.63;;
71265;SDS011;59030;52.052;8.550;2023-07-28T01:34:28;2.67;;;2.40;;
71265;SDS011;59030;52.052;8.550;2023-07-28T01:36:55;5.10;;;3.00;;
71265;SDS011;59030;52.052;8.550;2023-07-28T01:39:22;3.23;;;2.80;;
71265;SDS011;59030;52.052;8.550;2023-07-28T01:41:49;3.40;;;2.80;;
71265;SDS011;59030;52.052;8.550;2023-07-28T01:44:16;3.73;;;3.10;;
71265;SDS011;59030;52.052;8.550;2023-07-28T01:46:44;3.20;;;2.67;;
71265;SDS011;59030;52.052;8.550;2023-07-28T01:49:11;3.50;;;3.00;;
71265;SDS011;59030;52.052;8.550;2023-07-28T01:51:38;3.77;;;3.17;;
71265;SDS011;59030;52.052;8.550;2023-07-28T01:54:05;3.53;;;2.90;;
71265;SDS011;59030;52.052;8.550;2023-07-28T01:56:32;3.47;;;2.80;;
71265;SDS011;59030;52.052;8.550;2023-07-28T01:58:59;2.50;;;2.30;;
71265;SDS011;59030;52.052;8.550;2023-07-28T02:01:27;3.50;;;2.63;;
71265;SDS011;59030;52.052;8.550;2023-07-28T02:03:54;2.77;;;2.50;;
71265;SDS011;59030;52.052;8.550;2023-07-28T02:06:21;3.00;;;2.70;;
71265;SDS011;59030;52.052;8.550;2023-07-28T02:08:48;2.70;;;2.50;;
71265;SDS011;59030;52.052;8.550;2023-07-28T02:11:15;2.70;;;2.50;;
71265;SDS011;59030;52.052;8.550;2023-07-28T02:13:42;2.70;;;2.50;;
71265;SDS011;59030;52.052;8.550;2023-07-28T02:16:10;2.90;;;2.60;;
71265;SDS011;59030;52.052;8.550;2023-07-28T02:18:37;3.20;;;2.70;;
71265;SDS011;59030;52.052;8.550;2023-07-28T02:21:04;3.93;;;2.63;;
71265;SDS011;59030;52.052;8.550;2023-07-28T02:23:31;2.90;;;2.60;;
71265;SDS011;59030;52.052;8.550;2023-07-28T02:25:58;3.23;;;2.67;;
71265;SDS011;59030;52.052;8.550;2023-07-28T02:28:28;3.17;;;2.60;;
71265;SDS011;59030;52.052;8.550;2023-07-28T02:30:56;3.60;;;2.80;;
71265;SDS011;59030;52.052;8.550;2023-07-28T02:33:23;2.80;;;2.50;;
71265;SDS011;59030;52.052;8.550;2023-07-28T02:35:50;3.17;;;2.70;;
71265;SDS011;59030;52.052;8.550;2023-07-28T02:38:17;2.70;;;2.50;;
71265;SDS011;59030;52.052;8.550;2023-07-28T02:40:45;2.70;;;2.30;;
71265;SDS011;59030;52.052;8.550;2023-07-28T02:43:12;2.50;;;2.30;;
71265;SDS011;59030;52.052;8.550;2023-07-28T02:45:39;2.63;;;2.43;;
71265;SDS011;59030;52.052;8.550;2023-07-28T02:48:06;3.13;;;2.53;;
71265;SDS011;59030;52.052;8.550;2023-07-28T02:50:34;2.83;;;2.60;;
71265;SDS011;59030;52.052;8.550;2023-07-28T02:53:01;3.30;;;2.87;;
71265;SDS011;59030;52.052;8.550;2023-07-28T02:55:28;3.57;;;2.87;;
71265;SDS011;59030;52.052;8.550;2023-07-28T02:57:55;4.23;;;3.33;;
71265;SDS011;59030;52.052;8.550;2023-07-28T03:00:22;3.33;;;2.93;;
71265;SDS011;59030;52.052;8.550;2023-07-28T03:02:49;3.93;;;3.20;;
71265;SDS011;59030;52.052;8.550;2023-07-28T03:05:17;3.60;;;3.20;;
71265;SDS011;59030;52.052;8.550;2023-07-28T03:07:46;3.83;;;3.10;;
71265;SDS011;59030;52.052;8.550;2023-07-28T03:10:13;3.00;;;2.70;;
71265;SDS011;59030;52.052;8.550;2023-07-28T03:12:41;3.37;;;2.47;;
71265;SDS011;59030;52.052;8.550;2023-07-28T03:15:09;3.27;;;2.80;;
71265;SDS011;59030;52.052;8.550;2023-07-28T03:17:36;2.50;;;2.30;;
71265;SDS011;59030;52.052;8.550;2023-07-28T03:20:04;2.97;;;2.60;;
71265;SDS011;59030;52.052;8.550;2023-07-28T03:22:32;3.23;;;2.40;;
71265;SDS011;59030;52.052;8.550;2023-07-28T03:24:59;3.77;;;2.93;;
71265;SDS011;59030;52.052;8.550;2023-07-28T03:27:26;3.13;;;2.20;;
71265;SDS011;59030;52.052;8.550;2023-07-28T03:29:53;2.80;;;2.47;;
71265;SDS011;59030;52.052;8.550;2023-07-28T03:32:20;3.30;;;2.67;;
71265;SDS011;59030;52.052;8.550;2023-07-28T03:34:48;2.90;;;2.60;;
71265;SDS011;59030;52.052;8.550;2023-07-28T03:37:15;4.47;;;2.53;;
71265;SDS011;59030;52.052;8.550;2023-07-28T03:39:42;2.93;;;2.50;;
71265;SDS011;59030;52.052;8.550;2023-07-28T03:42:09;3.13;;;2.63;;
71265;SDS011;59030;52.052;8.550;2023-07-28T03:44:36;3.20;;;2.60;;
71265;SDS011;59030;52.052;8.550;2023-07-28T03:47:04;3.57;;;2.80;;
71265;SDS011;59030;52.052;8.550;2023-07-28T03:49:31;2.90;;;2.60;;
71265;SDS011;59030;52.052;8.550;2023-07-28T03:51:59;3.60;;;2.80;;
71265;SDS011;59030;52.052;8.550;2023-07-28T03:54:26;3.10;;;2.77;;
71265;SDS011;59030;52.052;8.550;2023-07-28T03:56:53;3.37;;;2.93;;
71265;SDS011;59030;52.052;8.550;2023-07-28T03:59:20;3.07;;;2.57;;
71265;SDS011;59030;52.052;8.550;2023-07-28T04:01:47;3.27;;;2.90;;
71265;SDS011;59030;52.052;8.550;2023-07-28T04:04:15;3.17;;;2.70;;
71265;SDS011;59030;52.052;8.550;2023-07-28T04:06:42;3.17;;;2.70;;
71265;SDS011;59030;52.052;8.550;2023-07-28T04:09:10;3.73;;;3.17;;
71265;SDS011;59030;52.052;8.550;2023-07-28T04:11:38;3.70;;;3.30;;
71265;SDS011;59030;52.052;8.550;2023-07-28T04:14:05;4.00;;;3.20;;
71265;SDS011;59030;52.052;8.550;2023-07-28T04:16:32;3.47;;;3.07;;
71265;SDS011;59030;52.052;8.550;2023-07-28T04:18:59;4.47;;;3.60;;
71265;SDS011;59030;52.052;8.550;2023-07-28T04:21:26;5.23;;;3.60;;
71265;SDS011;59030;52.052;8.550;2023-07-28T04:23:54;4.73;;;3.80;;
71265;SDS011;59030;52.052;8.550;2023-07-28T04:26:22;4.50;;;3.90;;
71265;SDS011;59030;52.052;8.550;2023-07-28T04:28:49;5.07;;;3.80;;
71265;SDS011;59030;52.052;8.550;2023-07-28T04:31:17;5.23;;;3.90;;
71265;SDS011;59030;52.052;8.550;2023-07-28T04:33:44;5.20;;;4.40;;
71265;SDS011;59030;52.052;8.550;2023-07-28T04:36:11;5.93;;;4.17;;
71265;SDS011;59030;52.052;8.550;2023-07-28T04:38:38;5.07;;;4.17;;
71265;SDS011;59030;52.052;8.550;2023-07-28T04:41:05;5.20;;;4.03;;
71265;SDS011;59030;52.052;8.550;2023-07-28T04:43:32;4.57;;;3.77;;
71265;SDS011;59030;52.052;8.550;2023-07-28T04:46:00;5.10;;;4.37;;
71265;SDS011;59030;52.052;8.550;2023-07-28T04:48:27;4.20;;;3.80;;
71265;SDS011;59030;52.052;8.550;2023-07-28T04:50:54;5.20;;;4.03;;
71265;SDS011;59030;52.052;8.550;2023-07-28T04:53:21;5.57;;;4.70;;
71265;SDS011;59030;52.052;8.550;2023-07-28T04:55:48;7.93;;;5.17;;
71265;SDS011;59030;52.052;8.550;2023-07-28T04:58:16;7.20;;;5.37;;
71265;SDS011;59030;52.052;8.550;2023-07-28T05:00:43;7.83;;;4.90;;
71265;SDS011;59030;52.052;8.550;2023-07-28T05:03:10;7.50;;;5.37;;
71265;SDS011;59030;52.052;8.550;2023-07-28T05:05:37;7.53;;;5.60;;
71265;SDS011;59030;52.052;8.550;2023-07-28T05:08:04;7.57;;;5.43;;
71265;SDS011;59030;52.052;8.550;2023-07-28T05:10:32;6.90;;;4.97;;
71265;SDS011;59030;52.052;8.550;2023-07-28T05:12:59;7.40;;;5.17;;
71265;SDS011;59030;52.052;8.550;2023-07-28T05:15:26;7.77;;;5.10;;
71265;SDS011;59030;52.052;8.550;2023-07-28T05:17:53;6.73;;;4.97;;
71265;SDS011;59030;52.052;8.550;2023-07-28T05:20:20;7.17;;;5.23;;
71265;SDS011;59030;52.052;8.550;2023-07-28T05:22:48;8.17;;;5.67;;
71265;SDS011;59030;52.052;8.550;2023-07-28T05:25:15;7.33;;;5.80;;
71265;SDS011;59030;52.052;8.550;2023-07-28T05:27:42;7.43;;;5.13;;
71265;SDS011;59030;52.052;8.550;2023-07-28T05:30:10;7.60;;;5.47;;
71265;SDS011;59030;52.052;8.550;2023-07-28T05:32:37;8.87;;;6.33;;
71265;SDS011;59030;52.052;8.550;2023-07-28T05:35:05;10.10;;;5.57;;
71265;SDS011;59030;52.052;8.550;2023-07-28T05:37:32;7.77;;;5.23;;
71265;SDS011;59030;52.052;8.550;2023-07-28T05:39:59;8.37;;;5.60;;
71265;SDS011;59030;52.052;8.550;2023-07-28T05:42:26;7.23;;;5.67;;
71265;SDS011;59030;52.052;8.550;2023-07-28T05:44:53;8.33;;;5.73;;
71265;SDS011;59030;52.052;8.550;2023-07-28T05:47:21;11.23;;;5.93;;
71265;SDS011;59030;52.052;8.550;2023-07-28T05:49:48;7.30;;;5.60;;
71265;SDS011;59030;52.052;8.550;2023-07-28T05:52:15;7.60;;;6.17;;
71265;SDS011;59030;52.052;8.550;2023-07-28T05:54:42;7.03;;;5.53;;
71265;SDS011;59030;52.052;8.550;2023-07-28T05:57:10;7.80;;;5.73;;
71265;SDS011;59030;52.052;8.550;2023-07-28T05:59:37;8.37;;;6.00;;
71265;SDS011;59030;52.052;8.550;2023-07-28T06:02:04;7.50;;;5.90;;
71265;SDS011;59030;52.052;8.550;2023-07-28T06:04:31;8.37;;;5.53;;
71265;SDS011;59030;52.052;8.550;2023-07-28T06:06:59;9.27;;;6.53;;
71265;SDS011;59030;52.052;8.550;2023-07-28T06:09:26;7.53;;;5.90;;
71265;SDS011;59030;52.052;8.550;2023-07-28T06:11:53;6.77;;;5.70;;
71265;SDS011;59030;52.052;8.550;2023-07-28T06:14:20;7.67;;;5.80;;
71265;SDS011;59030;52.052;8.550;2023-07-28T06:16:47;7.63;;;5.73;;
71265;SDS011;59030;52.052;8.550;2023-07-28T06:19:15;7.27;;;6.00;;
71265;SDS011;59030;52.052;8.550;2023-07-28T06:21:44;7.60;;;6.03;;
71265;SDS011;59030;52.052;8.550;2023-07-28T06:24:11;7.03;;;5.33;;
71265;SDS011;59030;52.052;8.550;2023-07-28T06:26:39;6.60;;;5.63;;
71265;SDS011;59030;52.052;8.550;2023-07-28T06:29:06;9.30;;;5.70;;
71265;SDS011;59030;52.052;8.550;2023-07-28T06:31:33;10.03;;;6.13;;
71265;SDS011;59030;52.052;8.550;2023-07-28T06:34:00;7.33;;;5.57;;
71265;SDS011;59030;52.052;8.550;2023-07-28T06:36:27;6.93;;;5.50;;
71265;SDS011;59030;52.052;8.550;2023-07-28T06:38:55;8.23;;;5.27;;
71265;SDS011;59030;52.052;8.550;2023-07-28T06:41:22;6.83;;;5.63;;
71265;SDS011;59030;52.052;8.550;2023-07-28T06:43:49;8.23;;;5.70;;
71265;SDS011;59030;52.052;8.550;2023-07-28T06:46:16;8.87;;;5.50;;
71265;SDS011;59030;52.052;8.550;2023-07-28T06:48:43;6.93;;;5.30;;
71265;SDS011;59030;52.052;8.550;2023-07-28T06:51:11;6.30;;;4.90;;
71265;SDS011;59030;52.052;8.550;2023-07-28T06:53:38;7.27;;;5.23;;
71265;SDS011;59030;52.052;8.550;2023-07-28T06:56:05;6.27;;;4.50;;
71265;SDS011;59030;52.052;8.550;2023-07-28T06:58:32;7.50;;;5.10;;
71265;SDS011;59030;52.052;8.550;2023-07-28T07:00:59;6.27;;;4.67;;
71265;SDS011;59030;52.052;8.550;2023-07-28T07:03:27;5.60;;;4.33;;
71265;SDS011;59030;52.052;8.550;2023-07-28T07:05:54;5.43;;;4.20;;
71265;SDS011;59030;52.052;8.550;2023-07-28T07:08:21;5.77;;;4.40;;
71265;SDS011;59030;52.052;8.550;2023-07-28T07:10:49;6.07;;;4.50;;
71265;SDS011;59030;52.052;8.550;2023-07-28T07:13:17;5.00;;;4.07;;
71265;SDS011;59030;52.052;8.550;2023-07-28T07:15:44;4.83;;;4.10;;
71265;SDS011;59030;52.052;8.550;2023-07-28T07:18:12;6.97;;;4.07;;
71265;SDS011;59030;52.052;8.550;2023-07-28T07:20:39;6.87;;;4.53;;
71265;SDS011;59030;52.052;8.550;2023-07-28T07:23:06;5.90;;;4.23;;
71265;SDS011;59030;52.052;8.550;2023-07-28T07:25:34;6.63;;;4.50;;
71265;SDS011;59030;52.052;8.550;2023-07-28T07:28:01;5.13;;;3.93;;
71265;SDS011;59030;52.052;8.550;2023-07-28T07:30:29;5.67;;;4.10;;
71265;SDS011;59030;52.052;8.550;2023-07-28T07:32:57;5.73;;;4.27;;
71265;SDS011;59030;52.052;8.550;2023-07-28T07:35:24;6.33;;;4.50;;
71265;SDS011;59030;52.052;8.550;2023-07-28T07:37:52;5.10;;;4.07;;
71265;SDS011;59030;52.052;8.550;2023-07-28T07:40:19;7.03;;;4.33;;
71265;SDS011;59030;52.052;8.550;2023-07-28T07:42:47;5.37;;;3.53;;
71265;SDS011;59030;52.052;8.550;2023-07-28T07:45:14;5.10;;;3.97;;
71265;SDS011;59030;52.052;8.550;2023-07-28T07:47:41;4.20;;;3.60;;
71265;SDS011;59030;52.052;8.550;2023-07-28T07:50:10;6.63;;;4.27;;
71265;SDS011;59030;52.052;8.550;2023-07-28T07:52:37;6.50;;;4.27;;
71265;SDS011;59030;52.052;8.550;2023-07-28T07:55:05;5.37;;;4.10;;
71265;SDS011;59030;52.052;8.550;2023-07-28T07:57:32;6.87;;;4.37;;
71265;SDS011;59030;52.052;8.550;2023-07-28T08:00:00;5.13;;;3.80;;
71265;SDS011;59030;52.052;8.550;2023-07-28T08:02:27;4.60;;;3.67;;
71265;SDS011;59030;52.052;8.550;2023-07-28T08:04:54;3.80;;;3.37;;
71265;SDS011;59030;52.052;8.550;2023-07-28T08:07:21;4.83;;;3.80;;
71265;SDS011;59030;52.052;8.550;2023-07-28T08:09:49;7.27;;;3.60;;
71265;SDS011;59030;52.052;8.550;2023-07-28T08:12:17;3.90;;;3.20;;
71265;SDS011;59030;52.052;8.550;2023-07-28T08:14:44;4.23;;;3.33;;
71265;SDS011;59030;52.052;8.550;2023-07-28T08:17:12;3.97;;;3.33;;
71265;SDS011;59030;52.052;8.550;2023-07-28T08:19:39;4.37;;;3.50;;
71265;SDS011;59030;52.052;8.550;2023-07-28T08:22:06;5.60;;;3.43;;
71265;SDS011;59030;52.052;8.550;2023-07-28T08:24:33;5.13;;;3.47;;
71265;SDS011;59030;52.052;8.550;2023-07-28T08:27:01;4.50;;;3.60;;
71265;SDS011;59030;52.052;8.550;2023-07-28T08:29:28;4.70;;;3.70;;
71265;SDS011;59030;52.052;8.550;2023-07-28T08:31:56;4.30;;;3.10;;
71265;SDS011;59030;52.052;8.550;2023-07-28T08:34:23;3.87;;;3.27;;
71265;SDS011;59030;52.052;8.550;2023-07-28T08:36:50;3.53;;;3.20;;
71265;SDS011;59030;52.052;8.550;2023-07-28T08:39:18;3.80;;;3.20;;
71265;SDS011;59030;52.052;8.550;2023-07-28T08:41:46;3.33;;;2.73;;
71265;SDS011;59030;52.052;8.550;2023-07-28T08:44:13;3.57;;;3.00;;
71265;SDS011;59030;52.052;8.550;2023-07-28T08:46:42;3.73;;;2.73;;
71265;SDS011;59030;52.052;8.550;2023-07-28T08:49:09;5.00;;;3.03;;
71265;SDS011;59030;52.052;8.550;2023-07-28T08:51:41;3.13;;;2.80;;
71265;SDS011;59030;52.052;8.550;2023-07-28T08:54:09;2.90;;;2.60;;
71265;SDS011;59030;52.052;8.550;2023-07-28T08:56:37;5.03;;;3.50;;
71265;SDS011;59030;52.052;8.550;2023-07-28T08:59:04;3.83;;;3.07;;
71265;SDS011;59030;52.052;8.550;2023-07-28T09:01:31;3.67;;;2.80;;
71265;SDS011;59030;52.052;8.550;2023-07-28T09:03:59;3.10;;;2.70;;
71265;SDS011;59030;52.052;8.550;2023-07-28T09:06:28;3.20;;;2.90;;
71265;SDS011;59030;52.052;8.550;2023-07-28T09:08:57;3.73;;;3.30;;
71265;SDS011;59030;52.052;8.550;2023-07-28T09:11:24;3.67;;;2.87;;
71265;SDS011;59030;52.052;8.550;2023-07-28T09:13:54;3.30;;;2.90;;
71265;SDS011;59030;52.052;8.550;2023-07-28T09:16:22;4.73;;;3.17;;
71265;SDS011;59030;52.052;8.550;2023-07-28T09:18:50;3.33;;;3.00;;
71265;SDS011;59030;52.052;8.550;2023-07-28T09:21:18;3.80;;;2.77;;
71265;SDS011;59030;52.052;8.550;2023-07-28T09:23:47;4.33;;;3.20;;
71265;SDS011;59030;52.052;8.550;2023-07-28T09:26:14;5.00;;;3.23;;
71265;SDS011;59030;52.052;8.550;2023-07-28T09:28:41;4.23;;;3.00;;
71265;SDS011;59030;52.052;8.550;2023-07-28T09:31:09;2.70;;;2.50;;
71265;SDS011;59030;52.052;8.550;2023-07-28T09:33:37;5.13;;;2.83;;
71265;SDS011;59030;52.052;8.550;2023-07-28T09:36:08;2.67;;;2.40;;
71265;SDS011;59030;52.052;8.550;2023-07-28T09:38:36;2.67;;;2.47;;
71265;SDS011;59030;52.052;8.550;2023-07-28T09:41:05;3.10;;;2.60;;
71265;SDS011;59030;52.052;8.550;2023-07-28T09:43:33;3.57;;;3.27;;
71265;SDS011;59030;52.052;8.550;2023-07-28T09:46:01;4.37;;;2.70;;
71265;SDS011;59030;52.052;8.550;2023-07-28T09:48:30;3.97;;;2.90;;
71265;SDS011;59030;52.052;8.550;2023-07-28T09:50:58;3.27;;;2.80;;
71265;SDS011;59030;52.052;8.550;2023-07-28T09:53:26;3.37;;;2.80;;
71265;SDS011;59030;52.052;8.550;2023-07-28T09:55:55;3.97;;;2.70;;
71265;SDS011;59030;52.052;8.550;2023-07-28T09:58:22;3.03;;;2.73;;
71265;SDS011;59030;52.052;8.550;2023-07-28T10:00:51;4.53;;;2.77;;
71265;SDS011;59030;52.052;8.550;2023-07-28T10:03:19;2.97;;;2.67;;
71265;SDS011;59030;52.052;8.550;2023-07-28T10:05:47;3.17;;;2.63;;
71265;SDS011;59030;52.052;8.550;2023-07-28T10:08:14;3.93;;;3.10;;
71265;SDS011;59030;52.052;8.550;2023-07-28T10:10:42;3.67;;;2.87;;
71265;SDS011;59030;52.052;8.550;2023-07-28T10:13:18;4.33;;;2.93;;
71265;SDS011;59030;52.052;8.550;2023-07-28T10:15:45;3.73;;;3.10;;
71265;SDS011;59030;52.052;8.550;2023-07-28T10:18:13;3.20;;;2.73;;
71265;SDS011;59030;52.052;8.550;2023-07-28T10:20:42;3.50;;;3.20;;
71265;SDS011;59030;52.052;8.550;2023-07-28T10:23:11;4.07;;;3.57;;
71265;SDS011;59030;52.052;8.550;2023-07-28T10:25:39;5.40;;;3.53;;
71265;SDS011;59030;52.052;8.550;2023-07-28T10:28:07;5.10;;;3.70;;
71265;SDS011;59030;52.052;8.550;2023-07-28T10:30:38;3.33;;;3.03;;
71265;SDS011;59030;52.052;8.550;2023-07-28T10:33:06;3.93;;;3.10;;
71265;SDS011;59030;52.052;8.550;2023-07-28T10:35:35;4.33;;;3.63;;
71265;SDS011;59030;52.052;8.550;2023-07-28T10:41:05;3.90;;;3.43;;
71265;SDS011;59030;52.052;8.550;2023-07-28T10:43:33;4.20;;;3.53;;
71265;SDS011;59030;52.052;8.550;2023-07-28T10:46:01;4.10;;;3.50;;
71265;SDS011;59030;52.052;8.550;2023-07-28T10:48:28;3.80;;;3.30;;
71265;SDS011;59030;52.052;8.550;2023-07-28T10:50:55;4.63;;;3.90;;
71265;SDS011;59030;52.052;8.550;2023-07-28T10:53:23;5.27;;;4.10;;
71265;SDS011;59030;52.052;8.550;2023-07-28T10:55:50;6.17;;;4.10;;
71265;SDS011;59030;52.052;8.550;2023-07-28T10:58:17;5.33;;;4.13;;
71265;SDS011;59030;52.052;8.550;2023-07-28T11:00:46;4.93;;;4.10;;
71265;SDS011;59030;52.052;8.550;2023-07-28T11:03:14;5.93;;;4.70;;
71265;SDS011;59030;52.052;8.550;2023-07-28T11:05:41;5.37;;;4.30;;
71265;SDS011;59030;52.052;8.550;2023-07-28T11:08:08;6.77;;;4.07;;
71265;SDS011;59030;52.052;8.550;2023-07-28T11:10:35;4.77;;;3.87;;
71265;SDS011;59030;52.052;8.550;2023-07-28T11:13:05;5.73;;;3.63;;
71265;SDS011;59030;52.052;8.550;2023-07-28T11:15:33;5.13;;;4.40;;
71265;SDS011;59030;52.052;8.550;2023-07-28T11:18:00;5.50;;;4.07;;
71265;SDS011;59030;52.052;8.550;2023-07-28T11:20:27;5.00;;;3.90;;
71265;SDS011;59030;52.052;8.550;2023-07-28T11:22:55;6.20;;;4.77;;
71265;SDS011;59030;52.052;8.550;2023-07-28T11:25:23;6.93;;;4.10;;
71265;SDS011;59030;52.052;8.550;2023-07-28T11:27:51;4.93;;;3.80;;
71265;SDS011;59030;52.052;8.550;2023-07-28T11:30:18;5.20;;;3.83;;
71265;SDS011;59030;52.052;8.550;2023-07-28T11:32:46;4.03;;;3.40;;
71265;SDS011;59030;52.052;8.550;2023-07-28T11:35:14;4.90;;;3.70;;
71265;SDS011;59030;52.052;8.550;2023-07-28T11:37:42;5.33;;;3.57;;
71265;SDS011;59030;52.052;8.550;2023-07-28T11:40:10;4.80;;;3.10;;
71265;SDS011;59030;52.052;8.550;2023-07-28T11:42:39;4.37;;;3.43;;
71265;SDS011;59030;52.052;8.550;2023-07-28T11:45:07;4.50;;;3.20;;
71265;SDS011;59030;52.052;8.550;2023-07-28T11:47:35;4.60;;;3.77;;
71265;SDS011;59030;52.052;8.550;2023-07-28T11:50:03;3.50;;;3.20;;
71265;SDS011;59030;52.052;8.550;2023-07-28T11:52:31;4.87;;;3.50;;
71265;SDS011;59030;52.052;8.550;2023-07-28T11:54:58;4.30;;;3.20;;
71265;SDS011;59030;52.052;8.550;2023-07-28T11:57:26;4.00;;;3.33;;
71265;SDS011;59030;52.052;8.550;2023-07-28T11:59:54;3.97;;;3.50;;
71265;SDS011;59030;52.052;8.550;2023-07-28T12:02:25;5.63;;;3.60;;
71265;SDS011;59030;52.052;8.550;2023-07-28T12:04:53;3.77;;;3.30;;
71265;SDS011;59030;52.052;8.550;2023-07-28T12:07:26;3.80;;;2.80;;
71265;SDS011;59030;52.052;8.550;2023-07-28T12:09:50;4.00;;;3.33;;
71265;SDS011;59030;52.052;8.550;2023-07-28T12:12:18;3.53;;;3.10;;
71265;SDS011;59030;52.052;8.550;2023-07-28T12:14:46;3.53;;;3.07;;
71265;SDS011;59030;52.052;8.550;2023-07-28T12:17:13;3.45;;;3.15;;
71265;SDS011;59030;52.052;8.550;2023-07-28T12:19:41;4.43;;;3.10;;
71265;SDS011;59030;52.052;8.550;2023-07-28T12:22:09;3.53;;;3.20;;
71265;SDS011;59030;52.052;8.550;2023-07-28T12:24:37;5.80;;;2.70;;
71265;SDS011;59030;52.052;8.550;2023-07-28T12:27:09;4.47;;;3.20;;
71265;SDS011;59030;52.052;8.550;2023-07-28T12:29:34;4.17;;;3.10;;
71265;SDS011;59030;52.052;8.550;2023-07-28T12:32:01;3.20;;;2.90;;
71265;SDS011;59030;52.052;8.550;2023-07-28T12:34:29;3.40;;;3.10;;
71265;SDS011;59030;52.052;8.550;2023-07-28T12:36:56;3.10;;;2.77;;
71265;SDS011;59030;52.052;8.550;2023-07-28T12:39:23;3.95;;;3.08;;
71265;SDS011;59030;52.052;8.550;2023-07-28T12:41:51;4.30;;;3.50;;
71265;SDS011;59030;52.052;8.550;2023-07-28T12:44:19;3.80;;;3.40;;
71265;SDS011;59030;52.052;8.550;2023-07-28T12:46:46;4.47;;;3.47;;
71265;SDS011;59030;52.052;8.550;2023-07-28T12:49:14;3.43;;;3.13;;
71265;SDS011;59030;52.052;8.550;2023-07-28T12:51:41;3.67;;;3.15;;
71265;SDS011;59030;52.052;8.550;2023-07-28T12:54:09;4.90;;;3.40;;
71265;SDS011;59030;52.052;8.550;2023-07-28T12:56:36;3.20;;;2.90;;
71265;SDS011;59030;52.052;8.550;2023-07-28T12:59:03;3.55;;;2.98;;
71265;SDS011;59030;52.052;8.550;2023-07-28T13:01:30;4.33;;;3.30;;
71265;SDS011;59030;52.052;8.550;2023-07-28T13:03:58;3.98;;;2.90;;
71265;SDS011;59030;52.052;8.550;2023-07-28T13:06:25;3.13;;;2.63;;
71265;SDS011;59030;52.052;8.550;2023-07-28T13:08:52;3.10;;;2.80;;
71265;SDS011;59030;52.052;8.550;2023-07-28T13:11:19;2.83;;;2.57;;
71265;SDS011;59030;52.052;8.550;2023-07-28T13:13:47;3.70;;;3.05;;
71265;SDS011;59030;52.052;8.550;2023-07-28T13:16:14;2.92;;;2.62;;
71265;SDS011;59030;52.052;8.550;2023-07-28T13:18:42;3.43;;;2.80;;
71265;SDS011;59030;52.052;8.550;2023-07-28T13:21:09;5.08;;;2.98;;
71265;SDS011;59030;52.052;8.550;2023-07-28T13:23:37;3.43;;;2.87;;
71265;SDS011;59030;52.052;8.550;2023-07-28T13:26:04;3.17;;;2.87;;
71265;SDS011;59030;52.052;8.550;2023-07-28T13:28:32;2.70;;;2.40;;
71265;SDS011;59030;52.052;8.550;2023-07-28T13:31:01;3.27;;;2.60;;
71265;SDS011;59030;52.052;8.550;2023-07-28T13:33:29;3.33;;;2.83;;
71265;SDS011;59030;52.052;8.550;2023-07-28T13:35:56;3.60;;;2.92;;
71265;SDS011;59030;52.052;8.550;2023-07-28T13:38:23;3.43;;;2.80;;
71265;SDS011;59030;52.052;8.550;2023-07-28T13:40:50;3.60;;;2.67;;
71265;SDS011;59030;52.052;8.550;2023-07-28T13:43:17;4.25;;;3.00;;
71265;SDS011;59030;52.052;8.550;2023-07-28T13:45:45;3.95;;;2.75;;
71265;SDS011;59030;52.052;8.550;2023-07-28T13:48:12;3.40;;;3.10;;
71265;SDS011;59030;52.052;8.550;2023-07-28T13:50:39;3.40;;;2.80;;
71265;SDS011;59030;52.052;8.550;2023-07-28T13:53:06;3.22;;;2.72;;
71265;SDS011;59030;52.052;8.550;2023-07-28T13:55:34;4.60;;;3.20;;
71265;SDS011;59030;52.052;8.550;2023-07-28T13:58:01;3.25;;;2.67;;
71265;SDS011;59030;52.052;8.550;2023-07-28T14:00:28;3.80;;;2.98;;
71265;SDS011;59030;52.052;8.550;2023-07-28T14:02:55;3.67;;;3.27;;
71265;SDS011;59030;52.052;8.550;2023-07-28T14:05:23;6.65;;;3.25;;
71265;SDS011;59030;52.052;8.550;2023-07-28T14:07:50;3.70;;;3.30;;
71265;SDS011;59030;52.052;8.550;2023-07-28T14:10:17;3.30;;;2.80;;
71265;SDS011;59030;52.052;8.550;2023-07-28T14:12:44;3.83;;;3.00;;
71265;SDS011;59030;52.052;8.550;2023-07-28T14:15:12;3.05;;;2.70;;
71265;SDS011;59030;52.052;8.550;2023-07-28T14:17:39;3.50;;;3.05;;
71265;SDS011;59030;52.052;8.550;2023-07-28T14:20:07;3.98;;;3.35;;
71265;SDS011;59030;52.052;8.550;2023-07-28T14:22:35;3.77;;;2.87;;
71265;SDS011;59030;52.052;8.550;2023-07-28T14:25:02;4.10;;;3.10;;
71265;SDS011;59030;52.052;8.550;2023-07-28T14:27:30;4.23;;;3.30;;
71265;SDS011;59030;52.052;8.550;2023-07-28T14:29:57;3.52;;;2.90;;
71265;SDS011;59030;52.052;8.550;2023-07-28T14:32:24;3.90;;;3.00;;
71265;SDS011;59030;52.052;8.550;2023-07-28T14:34:52;4.03;;;2.98;;
71265;SDS011;59030;52.052;8.550;2023-07-28T14:37:19;3.37;;;3.08;;
71265;SDS011;59030;52.052;8.550;2023-07-28T14:39:46;3.20;;;2.90;;
71265;SDS011;59030;52.052;8.550;2023-07-28T14:42:14;3.10;;;2.80;;
71265;SDS011;59030;52.052;8.550;2023-07-28T14:44:41;3.12;;;2.80;;
71265;SDS011;59030;52.052;8.550;2023-07-28T14:47:09;3.40;;;2.98;;
71265;SDS011;59030;52.052;8.550;2023-07-28T14:49:36;3.50;;;2.98;;
71265;SDS011;59030;52.052;8.550;2023-07-28T14:52:03;3.40;;;3.10;;